sensor_id;sensor_type;location;lat;lon;timestamp;temperature;humidity
17998;DHT22;9124;48.144;17.098;2022-12-29T00:36:39;1.60;99.90
17998;DHT22;9124;48.144;17.098;2022-12-29T00:40:31;1.60;99.90
17998;DHT22;9124;48.144;17.098;2022-12-29T00:44:28;1.60;99.90
17998;DHT22;9124;48.144;17.098;2022-12-29T00:48:05;1.60;99.90
17998;DHT22;9124;48.144;17.098;2022-12-29T00:51:41;1.60;99.90
17998;DHT22;9124;48.144;17.098;2022-12-29T00:55:17;1.60;99.90
17998;DHT22;9124;48.144;17.098;2022-12-29T00:58:54;1.60;99.90
17998;DHT22;9124;48.144;17.098;2022-12-29T01:02:31;1.60;99.90
17998;DHT22;9124;48.144;17.098;2022-12-29T01:06:09;1.50;99.90
17998;DHT22;9124;48.144;17.098;2022-12-29T01:09:47;1.50;99.90
17998;DHT22;9124;48.144;17.098;2022-12-29T01:13:42;1.40;99.90
17998;DHT22;9124;48.144;17.098;2022-12-29T01:17:21;1.40;99.90
17998;DHT22;9124;48.144;17.098;2022-12-29T01:21:01;1.40;99.90
17998;DHT22;9124;48.144;17.098;2022-12-29T01:24:38;1.30;99.90
17998;DHT22;9124;48.144;17.098;2022-12-29T01:28:14;1.30;99.90
17998;DHT22;9124;48.144;17.098;2022-12-29T01:31:51;1.30;99.90
17998;DHT22;9124;48.144;17.098;2022-12-29T01:35:27;1.30;99.90
17998;DHT22;9124;48.144;17.098;2022-12-29T01:39:04;1.30;99.90
17998;DHT22;9124;48.144;17.098;2022-12-29T01:42:40;1.30;99.90
17998;DHT22;9124;48.144;17.098;2022-12-29T01:46:25;1.30;99.90
17998;DHT22;9124;48.144;17.098;2022-12-29T01:50:09;1.30;99.90
17998;DHT22;9124;48.144;17.098;2022-12-29T01:53:50;1.20;99.90
17998;DHT22;9124;48.144;17.098;2022-12-29T01:57:33;1.20;99.90
17998;DHT22;9124;48.144;17.098;2022-12-29T02:01:11;1.10;99.90
17998;DHT22;9124;48.144;17.098;2022-12-29T02:04:47;1.10;99.90
17998;DHT22;9124;48.144;17.098;2022-12-29T02:08:30;1.10;99.90
17998;DHT22;9124;48.144;17.098;2022-12-29T02:12:08;1.10;99.90
17998;DHT22;9124;48.144;17.098;2022-12-29T02:24:06;1.00;99.90
17998;DHT22;9124;48.144;17.098;2022-12-29T02:27:53;1.00;99.90
17998;DHT22;9124;48.144;17.098;2022-12-29T02:51:39;1.10;99.90
17998;DHT22;9124;48.144;17.098;2022-12-29T02:55:16;1.20;99.90
17998;DHT22;9124;48.144;17.098;2022-12-29T02:58:53;1.20;99.90
17998;DHT22;9124;48.144;17.098;2022-12-29T03:14:25;1.40;99.90
17998;DHT22;9124;48.144;17.098;2022-12-29T03:18:30;1.40;99.90
17998;DHT22;9124;48.144;17.098;2022-12-29T03:22:12;1.40;99.90
17998;DHT22;9124;48.144;17.098;2022-12-29T03:26:16;1.40;99.90
17998;DHT22;9124;48.144;17.098;2022-12-29T03:30:00;1.50;99.90
17998;DHT22;9124;48.144;17.098;2022-12-29T03:33:41;1.60;99.90
17998;DHT22;9124;48.144;17.098;2022-12-29T03:37:23;1.60;99.90
17998;DHT22;9124;48.144;17.098;2022-12-29T03:41:07;1.70;99.90
17998;DHT22;9124;48.144;17.098;2022-12-29T03:44:45;1.80;99.90
17998;DHT22;9124;48.144;17.098;2022-12-29T03:48:23;1.90;99.90
17998;DHT22;9124;48.144;17.098;2022-12-29T03:52:03;1.90;99.90
17998;DHT22;9124;48.144;17.098;2022-12-29T03:55:41;1.90;99.90
17998;DHT22;9124;48.144;17.098;2022-12-29T03:59:18;1.90;99.90
17998;DHT22;9124;48.144;17.098;2022-12-29T04:02:54;2.00;99.90
17998;DHT22;9124;48.144;17.098;2022-12-29T04:06:33;2.00;99.90
17998;DHT22;9124;48.144;17.098;2022-12-29T04:10:14;2.10;99.90
17998;DHT22;9124;48.144;17.098;2022-12-29T04:13:50;2.00;99.90
17998;DHT22;9124;48.144;17.098;2022-12-29T04:17:31;2.10;99.90
17998;DHT22;9124;48.144;17.098;2022-12-29T04:21:08;2.10;99.90
17998;DHT22;9124;48.144;17.098;2022-12-29T04:24:47;2.00;99.90
17998;DHT22;9124;48.144;17.098;2022-12-29T04:28:24;2.00;99.90
17998;DHT22;9124;48.144;17.098;2022-12-29T04:32:16;2.10;99.90
17998;DHT22;9124;48.144;17.098;2022-12-29T04:35:59;2.10;99.90
17998;DHT22;9124;48.144;17.098;2022-12-29T04:39:35;2.10;99.90
17998;DHT22;9124;48.144;17.098;2022-12-29T04:43:15;2.10;99.90
17998;DHT22;9124;48.144;17.098;2022-12-29T04:47:27;2.10;99.90
17998;DHT22;9124;48.144;17.098;2022-12-29T04:51:22;2.10;99.90
17998;DHT22;9124;48.144;17.098;2022-12-29T04:55:00;2.10;99.90
17998;DHT22;9124;48.144;17.098;2022-12-29T04:58:37;2.00;99.90
17998;DHT22;9124;48.144;17.098;2022-12-29T05:02:15;1.90;99.90
17998;DHT22;9124;48.144;17.098;2022-12-29T05:05:57;1.90;99.90
17998;DHT22;9124;48.144;17.098;2022-12-29T05:09:34;1.90;99.90
17998;DHT22;9124;48.144;17.098;2022-12-29T05:13:11;1.90;99.90
17998;DHT22;9124;48.144;17.098;2022-12-29T05:16:50;2.00;99.90
17998;DHT22;9124;48.144;17.098;2022-12-29T05:20:30;2.00;99.90
17998;DHT22;9124;48.144;17.098;2022-12-29T05:24:10;2.10;99.90
17998;DHT22;9124;48.144;17.098;2022-12-29T05:27:46;2.10;99.90
17998;DHT22;9124;48.144;17.098;2022-12-29T05:31:46;2.10;99.90
17998;DHT22;9124;48.144;17.098;2022-12-29T05:35:22;2.10;99.90
17998;DHT22;9124;48.144;17.098;2022-12-29T05:38:59;2.10;99.90
17998;DHT22;9124;48.144;17.098;2022-12-29T05:42:36;2.00;99.90
17998;DHT22;9124;48.144;17.098;2022-12-29T05:46:35;2.00;99.90
17998;DHT22;9124;48.144;17.098;2022-12-29T05:50:37;1.90;99.90
17998;DHT22;9124;48.144;17.098;2022-12-29T05:54:23;1.90;99.90
17998;DHT22;9124;48.144;17.098;2022-12-29T05:58:01;1.90;99.90
17998;DHT22;9124;48.144;17.098;2022-12-29T06:01:37;2.00;99.90
17998;DHT22;9124;48.144;17.098;2022-12-29T06:05:13;2.00;99.90
17998;DHT22;9124;48.144;17.098;2022-12-29T06:08:50;2.10;99.90
17998;DHT22;9124;48.144;17.098;2022-12-29T06:12:28;2.10;99.90
17998;DHT22;9124;48.144;17.098;2022-12-29T06:16:05;2.20;99.90
17998;DHT22;9124;48.144;17.098;2022-12-29T06:19:42;2.20;99.90
17998;DHT22;9124;48.144;17.098;2022-12-29T06:23:20;2.30;99.90
17998;DHT22;9124;48.144;17.098;2022-12-29T06:26:56;2.30;99.90
17998;DHT22;9124;48.144;17.098;2022-12-29T06:30:33;2.30;99.90
17998;DHT22;9124;48.144;17.098;2022-12-29T06:34:11;2.40;99.90
17998;DHT22;9124;48.144;17.098;2022-12-29T06:37:48;2.50;99.90
17998;DHT22;9124;48.144;17.098;2022-12-29T06:41:24;2.50;99.90
17998;DHT22;9124;48.144;17.098;2022-12-29T06:45:30;2.50;99.90
17998;DHT22;9124;48.144;17.098;2022-12-29T06:49:06;2.70;99.90
17998;DHT22;9124;48.144;17.098;2022-12-29T06:52:42;2.70;99.90
17998;DHT22;9124;48.144;17.098;2022-12-29T06:56:19;2.80;99.90
17998;DHT22;9124;48.144;17.098;2022-12-29T06:59:55;2.80;99.90
17998;DHT22;9124;48.144;17.098;2022-12-29T07:03:31;2.90;99.90
17998;DHT22;9124;48.144;17.098;2022-12-29T07:07:08;2.90;99.90
17998;DHT22;9124;48.144;17.098;2022-12-29T07:10:44;3.00;99.90
17998;DHT22;9124;48.144;17.098;2022-12-29T07:14:21;3.10;99.90
17998;DHT22;9124;48.144;17.098;2022-12-29T07:17:57;3.20;99.90
17998;DHT22;9124;48.144;17.098;2022-12-29T07:21:34;3.30;99.90
17998;DHT22;9124;48.144;17.098;2022-12-29T07:25:10;3.30;99.90
17998;DHT22;9124;48.144;17.098;2022-12-29T07:28:46;3.20;99.90
17998;DHT22;9124;48.144;17.098;2022-12-29T07:32:22;3.20;99.90
17998;DHT22;9124;48.144;17.098;2022-12-29T07:35:59;3.30;99.90
17998;DHT22;9124;48.144;17.098;2022-12-29T07:39:36;3.30;99.90
17998;DHT22;9124;48.144;17.098;2022-12-29T07:43:12;3.50;99.90
17998;DHT22;9124;48.144;17.098;2022-12-29T07:46:57;3.50;99.90
17998;DHT22;9124;48.144;17.098;2022-12-29T07:50:34;3.60;99.90
17998;DHT22;9124;48.144;17.098;2022-12-29T07:54:10;3.60;99.90
17998;DHT22;9124;48.144;17.098;2022-12-29T07:57:48;3.70;99.90
17998;DHT22;9124;48.144;17.098;2022-12-29T08:01:25;3.70;99.90
17998;DHT22;9124;48.144;17.098;2022-12-29T08:05:01;3.90;99.90
17998;DHT22;9124;48.144;17.098;2022-12-29T08:08:38;4.00;99.90
17998;DHT22;9124;48.144;17.098;2022-12-29T08:12:14;4.10;99.90
17998;DHT22;9124;48.144;17.098;2022-12-29T08:15:51;4.10;99.90
17998;DHT22;9124;48.144;17.098;2022-12-29T08:19:27;4.10;99.90
17998;DHT22;9124;48.144;17.098;2022-12-29T08:23:03;4.30;99.90
17998;DHT22;9124;48.144;17.098;2022-12-29T08:26:40;4.40;99.90
17998;DHT22;9124;48.144;17.098;2022-12-29T08:30:16;4.40;99.90
17998;DHT22;9124;48.144;17.098;2022-12-29T08:33:52;4.40;99.90
17998;DHT22;9124;48.144;17.098;2022-12-29T08:37:29;4.50;99.90
17998;DHT22;9124;48.144;17.098;2022-12-29T08:41:05;4.50;99.90
17998;DHT22;9124;48.144;17.098;2022-12-29T08:44:42;4.40;99.90
17998;DHT22;9124;48.144;17.098;2022-12-29T08:48:18;4.50;99.90
17998;DHT22;9124;48.144;17.098;2022-12-29T08:51:58;4.50;99.90
17998;DHT22;9124;48.144;17.098;2022-12-29T08:55:34;4.60;99.90
17998;DHT22;9124;48.144;17.098;2022-12-29T08:59:11;4.60;99.90
17998;DHT22;9124;48.144;17.098;2022-12-29T09:02:47;4.60;99.90
17998;DHT22;9124;48.144;17.098;2022-12-29T09:06:24;4.80;99.90
17998;DHT22;9124;48.144;17.098;2022-12-29T09:10:00;4.90;99.90
17998;DHT22;9124;48.144;17.098;2022-12-29T09:13:36;5.10;99.90
17998;DHT22;9124;48.144;17.098;2022-12-29T09:17:13;5.30;99.90
17998;DHT22;9124;48.144;17.098;2022-12-29T09:21:10;5.40;99.90
17998;DHT22;9124;48.144;17.098;2022-12-29T09:24:47;5.40;99.90
17998;DHT22;9124;48.144;17.098;2022-12-29T09:28:23;5.40;99.90
17998;DHT22;9124;48.144;17.098;2022-12-29T09:32:00;5.30;99.90
17998;DHT22;9124;48.144;17.098;2022-12-29T09:35:36;5.20;99.90
17998;DHT22;9124;48.144;17.098;2022-12-29T09:39:13;5.20;99.90
17998;DHT22;9124;48.144;17.098;2022-12-29T09:43:09;5.10;99.90
17998;DHT22;9124;48.144;17.098;2022-12-29T09:46:51;5.10;99.90
17998;DHT22;9124;48.144;17.098;2022-12-29T09:50:33;5.30;99.90
17998;DHT22;9124;48.144;17.098;2022-12-29T09:55:03;5.40;99.90
17998;DHT22;9124;48.144;17.098;2022-12-29T09:58:49;5.50;99.90
17998;DHT22;9124;48.144;17.098;2022-12-29T10:02:37;5.40;99.90
17998;DHT22;9124;48.144;17.098;2022-12-29T10:10:34;5.70;99.90
17998;DHT22;9124;48.144;17.098;2022-12-29T10:18:42;5.70;99.90
17998;DHT22;9124;48.144;17.098;2022-12-29T10:26:19;5.40;99.90
17998;DHT22;9124;48.144;17.098;2022-12-29T10:29:57;5.40;99.90
17998;DHT22;9124;48.144;17.098;2022-12-29T10:33:39;5.40;99.90
17998;DHT22;9124;48.144;17.098;2022-12-29T10:41:05;5.50;99.90
17998;DHT22;9124;48.144;17.098;2022-12-29T10:44:45;5.60;99.90
17998;DHT22;9124;48.144;17.098;2022-12-29T10:48:41;5.50;99.90
17998;DHT22;9124;48.144;17.098;2022-12-29T10:52:23;5.50;99.90
17998;DHT22;9124;48.144;17.098;2022-12-29T10:56:01;5.70;99.90
17998;DHT22;9124;48.144;17.098;2022-12-29T10:59:41;5.90;99.90
17998;DHT22;9124;48.144;17.098;2022-12-29T11:07:00;5.90;99.80
17998;DHT22;9124;48.144;17.098;2022-12-29T11:10:39;5.80;99.80
17998;DHT22;9124;48.144;17.098;2022-12-29T11:14:26;5.80;99.90
17998;DHT22;9124;48.144;17.098;2022-12-29T11:18:03;5.80;99.80
17998;DHT22;9124;48.144;17.098;2022-12-29T11:21:39;5.90;99.90
17998;DHT22;9124;48.144;17.098;2022-12-29T11:25:17;5.90;99.80
17998;DHT22;9124;48.144;17.098;2022-12-29T11:29:29;5.90;99.90
17998;DHT22;9124;48.144;17.098;2022-12-29T11:33:12;6.10;99.90
17998;DHT22;9124;48.144;17.098;2022-12-29T11:36:50;6.20;99.80
17998;DHT22;9124;48.144;17.098;2022-12-29T11:40:28;6.20;99.50
17998;DHT22;9124;48.144;17.098;2022-12-29T11:44:05;6.00;99.40
17998;DHT22;9124;48.144;17.098;2022-12-29T11:47:48;6.10;99.60
17998;DHT22;9124;48.144;17.098;2022-12-29T11:51:31;6.20;99.50
17998;DHT22;9124;48.144;17.098;2022-12-29T11:55:36;6.30;99.50
17998;DHT22;9124;48.144;17.098;2022-12-29T11:59:34;6.40;99.40
17998;DHT22;9124;48.144;17.098;2022-12-29T12:03:21;6.50;99.30
17998;DHT22;9124;48.144;17.098;2022-12-29T12:10:48;6.70;99.20
17998;DHT22;9124;48.144;17.098;2022-12-29T12:14:34;6.70;98.90
17998;DHT22;9124;48.144;17.098;2022-12-29T12:19:03;6.80;98.90
17998;DHT22;9124;48.144;17.098;2022-12-29T12:22:58;6.60;98.50
17998;DHT22;9124;48.144;17.098;2022-12-29T12:26:44;6.40;98.20
17998;DHT22;9124;48.144;17.098;2022-12-29T12:30:30;6.00;98.00
17998;DHT22;9124;48.144;17.098;2022-12-29T12:34:25;5.70;98.10
17998;DHT22;9124;48.144;17.098;2022-12-29T12:50:40;5.40;98.60
17998;DHT22;9124;48.144;17.098;2022-12-29T12:54:21;5.00;98.60
17998;DHT22;9124;48.144;17.098;2022-12-29T13:01:50;4.70;99.20
17998;DHT22;9124;48.144;17.098;2022-12-29T13:06:03;4.80;99.80
17998;DHT22;9124;48.144;17.098;2022-12-29T13:18:02;5.20;99.90
17998;DHT22;9124;48.144;17.098;2022-12-29T13:21:54;5.10;99.90
17998;DHT22;9124;48.144;17.098;2022-12-29T13:26:02;4.90;99.90
17998;DHT22;9124;48.144;17.098;2022-12-29T13:38:18;5.30;99.90
17998;DHT22;9124;48.144;17.098;2022-12-29T13:41:56;5.30;99.90
17998;DHT22;9124;48.144;17.098;2022-12-29T13:45:34;5.20;99.90
17998;DHT22;9124;48.144;17.098;2022-12-29T13:49:19;5.00;99.90
17998;DHT22;9124;48.144;17.098;2022-12-29T14:04:30;4.70;99.90
17998;DHT22;9124;48.144;17.098;2022-12-29T14:08:16;4.60;99.90
17998;DHT22;9124;48.144;17.098;2022-12-29T14:11:53;4.50;99.90
17998;DHT22;9124;48.144;17.098;2022-12-29T14:15:30;4.50;99.90
17998;DHT22;9124;48.144;17.098;2022-12-29T14:23:26;4.50;99.90
17998;DHT22;9124;48.144;17.098;2022-12-29T14:30:53;4.40;99.90
17998;DHT22;9124;48.144;17.098;2022-12-29T14:34:34;4.30;99.90
17998;DHT22;9124;48.144;17.098;2022-12-29T14:38:22;4.30;99.90
17998;DHT22;9124;48.144;17.098;2022-12-29T14:42:19;4.30;99.90
17998;DHT22;9124;48.144;17.098;2022-12-29T14:46:00;4.20;99.90
17998;DHT22;9124;48.144;17.098;2022-12-29T14:49:42;4.10;99.90
17998;DHT22;9124;48.144;17.098;2022-12-29T14:53:49;4.00;99.90
17998;DHT22;9124;48.144;17.098;2022-12-29T14:57:47;4.00;99.90
17998;DHT22;9124;48.144;17.098;2022-12-29T15:01:44;4.00;99.90
17998;DHT22;9124;48.144;17.098;2022-12-29T15:13:41;3.80;99.90
17998;DHT22;9124;48.144;17.098;2022-12-29T15:17:30;3.80;99.90
17998;DHT22;9124;48.144;17.098;2022-12-29T15:21:06;3.80;99.90
17998;DHT22;9124;48.144;17.098;2022-12-29T15:24:43;3.70;99.90
17998;DHT22;9124;48.144;17.098;2022-12-29T15:28:21;3.70;99.90
17998;DHT22;9124;48.144;17.098;2022-12-29T15:32:00;3.70;99.90
17998;DHT22;9124;48.144;17.098;2022-12-29T15:35:37;3.70;99.90
17998;DHT22;9124;48.144;17.098;2022-12-29T15:39:25;3.60;99.90
17998;DHT22;9124;48.144;17.098;2022-12-29T15:43:12;3.60;99.90
17998;DHT22;9124;48.144;17.098;2022-12-29T15:46:51;3.60;99.90
17998;DHT22;9124;48.144;17.098;2022-12-29T15:54:05;3.60;99.90
17998;DHT22;9124;48.144;17.098;2022-12-29T15:57:43;3.60;99.90
17998;DHT22;9124;48.144;17.098;2022-12-29T16:01:36;3.60;99.90
17998;DHT22;9124;48.144;17.098;2022-12-29T16:05:36;3.60;99.90
17998;DHT22;9124;48.144;17.098;2022-12-29T16:09:18;3.60;99.90
17998;DHT22;9124;48.144;17.098;2022-12-29T16:13:02;3.60;99.90
17998;DHT22;9124;48.144;17.098;2022-12-29T16:16:42;3.60;99.90
17998;DHT22;9124;48.144;17.098;2022-12-29T16:20:37;3.60;99.90
17998;DHT22;9124;48.144;17.098;2022-12-29T16:24:23;3.60;99.90
17998;DHT22;9124;48.144;17.098;2022-12-29T16:28:01;3.60;99.90
17998;DHT22;9124;48.144;17.098;2022-12-29T16:35:47;3.70;99.90
17998;DHT22;9124;48.144;17.098;2022-12-29T16:39:28;3.60;99.90
17998;DHT22;9124;48.144;17.098;2022-12-29T16:43:25;3.60;99.90
17998;DHT22;9124;48.144;17.098;2022-12-29T16:50:48;3.60;99.90
17998;DHT22;9124;48.144;17.098;2022-12-29T16:54:32;3.60;99.90
17998;DHT22;9124;48.144;17.098;2022-12-29T16:58:17;3.60;99.90
17998;DHT22;9124;48.144;17.098;2022-12-29T17:01:55;3.60;99.90
17998;DHT22;9124;48.144;17.098;2022-12-29T17:05:32;3.60;99.90
17998;DHT22;9124;48.144;17.098;2022-12-29T17:09:22;3.60;99.90
17998;DHT22;9124;48.144;17.098;2022-12-29T17:12:59;3.60;99.90
17998;DHT22;9124;48.144;17.098;2022-12-29T17:16:36;3.60;99.90
17998;DHT22;9124;48.144;17.098;2022-12-29T17:23:53;3.70;99.90
17998;DHT22;9124;48.144;17.098;2022-12-29T17:27:38;3.70;99.90
17998;DHT22;9124;48.144;17.098;2022-12-29T17:31:16;3.70;99.90
17998;DHT22;9124;48.144;17.098;2022-12-29T17:34:53;3.70;99.90
17998;DHT22;9124;48.144;17.098;2022-12-29T17:38:33;3.80;99.90
17998;DHT22;9124;48.144;17.098;2022-12-29T17:42:10;3.70;99.90
17998;DHT22;9124;48.144;17.098;2022-12-29T17:45:52;3.70;99.90
17998;DHT22;9124;48.144;17.098;2022-12-29T17:49:28;3.70;99.90
17998;DHT22;9124;48.144;17.098;2022-12-29T17:53:09;3.70;99.90
17998;DHT22;9124;48.144;17.098;2022-12-29T17:56:47;3.70;99.90
17998;DHT22;9124;48.144;17.098;2022-12-29T18:00:29;3.70;99.90
17998;DHT22;9124;48.144;17.098;2022-12-29T18:04:12;3.70;99.90
17998;DHT22;9124;48.144;17.098;2022-12-29T18:07:54;3.70;99.90
17998;DHT22;9124;48.144;17.098;2022-12-29T18:11:31;3.60;99.90
17998;DHT22;9124;48.144;17.098;2022-12-29T18:15:18;3.60;99.90
17998;DHT22;9124;48.144;17.098;2022-12-29T18:18:55;3.60;99.90
17998;DHT22;9124;48.144;17.098;2022-12-29T18:22:31;3.60;99.90
17998;DHT22;9124;48.144;17.098;2022-12-29T18:26:36;3.50;99.90
17998;DHT22;9124;48.144;17.098;2022-12-29T18:30:13;3.50;99.90
17998;DHT22;9124;48.144;17.098;2022-12-29T18:33:51;3.50;99.90
17998;DHT22;9124;48.144;17.098;2022-12-29T18:37:28;3.50;99.90
17998;DHT22;9124;48.144;17.098;2022-12-29T18:41:05;3.50;99.90
17998;DHT22;9124;48.144;17.098;2022-12-29T18:44:42;3.40;99.90
17998;DHT22;9124;48.144;17.098;2022-12-29T18:48:19;3.40;99.90
17998;DHT22;9124;48.144;17.098;2022-12-29T18:51:56;3.40;99.90
17998;DHT22;9124;48.144;17.098;2022-12-29T18:55:32;3.30;99.90
17998;DHT22;9124;48.144;17.098;2022-12-29T18:59:09;3.30;99.90
17998;DHT22;9124;48.144;17.098;2022-12-29T19:02:45;3.40;99.90
17998;DHT22;9124;48.144;17.098;2022-12-29T19:06:22;3.30;99.90
17998;DHT22;9124;48.144;17.098;2022-12-29T19:09:58;3.30;99.90
17998;DHT22;9124;48.144;17.098;2022-12-29T19:13:35;3.30;99.90
17998;DHT22;9124;48.144;17.098;2022-12-29T19:17:12;3.20;99.90
17998;DHT22;9124;48.144;17.098;2022-12-29T19:20:50;3.20;99.90
17998;DHT22;9124;48.144;17.098;2022-12-29T19:24:27;3.20;99.90
17998;DHT22;9124;48.144;17.098;2022-12-29T19:28:04;3.20;99.90
17998;DHT22;9124;48.144;17.098;2022-12-29T19:31:41;3.20;99.90
17998;DHT22;9124;48.144;17.098;2022-12-29T19:35:19;3.20;99.90
17998;DHT22;9124;48.144;17.098;2022-12-29T19:38:56;3.20;99.90
17998;DHT22;9124;48.144;17.098;2022-12-29T19:42:33;3.20;99.90
17998;DHT22;9124;48.144;17.098;2022-12-29T19:46:15;3.20;99.90
17998;DHT22;9124;48.144;17.098;2022-12-29T19:49:51;3.30;99.90
17998;DHT22;9124;48.144;17.098;2022-12-29T19:53:28;3.30;99.90
17998;DHT22;9124;48.144;17.098;2022-12-29T19:57:04;3.30;99.90
17998;DHT22;9124;48.144;17.098;2022-12-29T20:00:42;3.30;99.90
17998;DHT22;9124;48.144;17.098;2022-12-29T20:04:18;3.40;99.90
17998;DHT22;9124;48.144;17.098;2022-12-29T20:07:55;3.40;99.90
17998;DHT22;9124;48.144;17.098;2022-12-29T20:11:31;3.30;99.90
17998;DHT22;9124;48.144;17.098;2022-12-29T20:15:08;3.30;99.90
17998;DHT22;9124;48.144;17.098;2022-12-29T20:18:45;3.20;99.90
17998;DHT22;9124;48.144;17.098;2022-12-29T20:22:21;3.20;99.90
17998;DHT22;9124;48.144;17.098;2022-12-29T20:25:59;3.20;99.90
17998;DHT22;9124;48.144;17.098;2022-12-29T20:29:38;3.10;99.90
17998;DHT22;9124;48.144;17.098;2022-12-29T20:33:14;3.10;99.90
17998;DHT22;9124;48.144;17.098;2022-12-29T20:36:50;3.10;99.90
17998;DHT22;9124;48.144;17.098;2022-12-29T20:40:27;3.10;99.90
17998;DHT22;9124;48.144;17.098;2022-12-29T20:44:03;3.10;99.90
17998;DHT22;9124;48.144;17.098;2022-12-29T20:47:40;3.10;99.90
17998;DHT22;9124;48.144;17.098;2022-12-29T20:51:17;3.10;99.90
17998;DHT22;9124;48.144;17.098;2022-12-29T20:54:53;3.10;99.90
17998;DHT22;9124;48.144;17.098;2022-12-29T20:58:30;3.10;99.90
17998;DHT22;9124;48.144;17.098;2022-12-29T21:02:17;3.10;99.90
17998;DHT22;9124;48.144;17.098;2022-12-29T21:05:54;3.10;99.90
17998;DHT22;9124;48.144;17.098;2022-12-29T21:09:30;3.10;99.90
17998;DHT22;9124;48.144;17.098;2022-12-29T21:13:07;3.20;99.90
17998;DHT22;9124;48.144;17.098;2022-12-29T21:16:43;3.20;99.90
17998;DHT22;9124;48.144;17.098;2022-12-29T21:20:19;3.20;99.90
17998;DHT22;9124;48.144;17.098;2022-12-29T21:23:56;3.20;99.90
17998;DHT22;9124;48.144;17.098;2022-12-29T21:27:40;3.20;99.90
17998;DHT22;9124;48.144;17.098;2022-12-29T21:35:04;3.10;99.90
17998;DHT22;9124;48.144;17.098;2022-12-29T21:38:40;3.10;99.90
17998;DHT22;9124;48.144;17.098;2022-12-29T21:42:16;3.00;99.90
17998;DHT22;9124;48.144;17.098;2022-12-29T21:45:53;3.00;99.90
17998;DHT22;9124;48.144;17.098;2022-12-29T21:49:29;2.90;99.90
17998;DHT22;9124;48.144;17.098;2022-12-29T21:53:06;2.90;99.90
17998;DHT22;9124;48.144;17.098;2022-12-29T21:56:42;2.90;99.90
17998;DHT22;9124;48.144;17.098;2022-12-29T22:00:22;2.80;99.90
17998;DHT22;9124;48.144;17.098;2022-12-29T22:04:19;2.80;99.90
17998;DHT22;9124;48.144;17.098;2022-12-29T22:08:16;2.80;99.90
17998;DHT22;9124;48.144;17.098;2022-12-29T22:12:10;2.80;99.90
17998;DHT22;9124;48.144;17.098;2022-12-29T22:16:08;2.80;99.90
17998;DHT22;9124;48.144;17.098;2022-12-29T22:19:45;2.70;99.90
17998;DHT22;9124;48.144;17.098;2022-12-29T22:23:21;2.70;99.90
17998;DHT22;9124;48.144;17.098;2022-12-29T22:26:58;2.70;99.90
17998;DHT22;9124;48.144;17.098;2022-12-29T22:30:35;2.60;99.90
17998;DHT22;9124;48.144;17.098;2022-12-29T22:34:11;2.60;99.90
17998;DHT22;9124;48.144;17.098;2022-12-29T22:37:49;2.70;99.90
17998;DHT22;9124;48.144;17.098;2022-12-29T22:41:25;2.70;99.90
17998;DHT22;9124;48.144;17.098;2022-12-29T22:45:02;2.70;99.90
17998;DHT22;9124;48.144;17.098;2022-12-29T22:48:39;2.70;99.90
17998;DHT22;9124;48.144;17.098;2022-12-29T22:52:15;2.70;99.90
17998;DHT22;9124;48.144;17.098;2022-12-29T22:56:06;2.70;99.90
17998;DHT22;9124;48.144;17.098;2022-12-29T22:59:43;2.60;99.90
17998;DHT22;9124;48.144;17.098;2022-12-29T23:03:19;2.60;99.90
17998;DHT22;9124;48.144;17.098;2022-12-29T23:06:56;2.60;99.90
17998;DHT22;9124;48.144;17.098;2022-12-29T23:10:32;2.60;99.90
17998;DHT22;9124;48.144;17.098;2022-12-29T23:14:08;2.50;99.90
17998;DHT22;9124;48.144;17.098;2022-12-29T23:17:44;2.50;99.90
17998;DHT22;9124;48.144;17.098;2022-12-29T23:21:21;2.50;99.90
17998;DHT22;9124;48.144;17.098;2022-12-29T23:24:58;2.50;99.90
17998;DHT22;9124;48.144;17.098;2022-12-29T23:28:34;2.60;99.90
17998;DHT22;9124;48.144;17.098;2022-12-29T23:32:11;2.60;99.90
17998;DHT22;9124;48.144;17.098;2022-12-29T23:35:47;2.60;99.90
17998;DHT22;9124;48.144;17.098;2022-12-29T23:39:24;2.60;99.90
17998;DHT22;9124;48.144;17.098;2022-12-29T23:43:00;2.70;99.90
17998;DHT22;9124;48.144;17.098;2022-12-29T23:46:37;2.60;99.90
17998;DHT22;9124;48.144;17.098;2022-12-29T23:50:13;2.70;99.90
17998;DHT22;9124;48.144;17.098;2022-12-29T23:53:50;2.70;99.90
17998;DHT22;9124;48.144;17.098;2022-12-29T23:57:26;2.70;99.90
